sensor_id;sensor_type;location;lat;lon;timestamp;P1;durP1;ratioP1;P2;durP2;ratioP2
19107;SDS011;9686;48.832;9.126;2023-04-24T00:02:08;1.20;;;0.90;;
19107;SDS011;9686;48.832;9.126;2023-04-24T00:04:36;2.50;;;0.80;;
19107;SDS011;9686;48.832;9.126;2023-04-24T00:07:05;0.70;;;0.60;;
19107;SDS011;9686;48.832;9.126;2023-04-24T00:09:31;0.63;;;0.60;;
19107;SDS011;9686;48.832;9.126;2023-04-24T00:11:57;1.13;;;0.60;;
19107;SDS011;9686;48.832;9.126;2023-04-24T00:14:22;1.40;;;0.50;;
19107;SDS011;9686;48.832;9.126;2023-04-24T00:16:47;2.03;;;1.20;;
19107;SDS011;9686;48.832;9.126;2023-04-24T00:19:13;1.63;;;0.60;;
19107;SDS011;9686;48.832;9.126;2023-04-24T00:21:38;1.03;;;0.77;;
19107;SDS011;9686;48.832;9.126;2023-04-24T00:24:04;0.60;;;0.53;;
19107;SDS011;9686;48.832;9.126;2023-04-24T00:26:29;0.70;;;0.50;;
19107;SDS011;9686;48.832;9.126;2023-04-24T00:28:55;2.40;;;0.70;;
19107;SDS011;9686;48.832;9.126;2023-04-24T00:31:20;1.43;;;0.67;;
19107;SDS011;9686;48.832;9.126;2023-04-24T00:33:45;0.70;;;0.70;;
19107;SDS011;9686;48.832;9.126;2023-04-24T00:36:11;1.30;;;0.77;;
19107;SDS011;9686;48.832;9.126;2023-04-24T00:38:36;1.80;;;0.63;;
19107;SDS011;9686;48.832;9.126;2023-04-24T00:41:01;0.97;;;0.63;;
19107;SDS011;9686;48.832;9.126;2023-04-24T00:43:26;1.63;;;0.70;;
19107;SDS011;9686;48.832;9.126;2023-04-24T00:45:52;2.00;;;0.70;;
19107;SDS011;9686;48.832;9.126;2023-04-24T00:48:17;0.80;;;0.60;;
19107;SDS011;9686;48.832;9.126;2023-04-24T00:50:43;2.07;;;0.70;;
19107;SDS011;9686;48.832;9.126;2023-04-24T00:53:08;2.03;;;0.60;;
19107;SDS011;9686;48.832;9.126;2023-04-24T00:55:34;0.83;;;0.50;;
19107;SDS011;9686;48.832;9.126;2023-04-24T00:58:02;1.60;;;0.60;;
19107;SDS011;9686;48.832;9.126;2023-04-24T01:00:27;4.03;;;0.60;;
19107;SDS011;9686;48.832;9.126;2023-04-24T01:02:53;2.43;;;0.60;;
19107;SDS011;9686;48.832;9.126;2023-04-24T01:05:18;2.00;;;0.70;;
19107;SDS011;9686;48.832;9.126;2023-04-24T01:07:44;0.63;;;0.50;;
19107;SDS011;9686;48.832;9.126;2023-04-24T01:10:12;1.67;;;0.50;;
19107;SDS011;9686;48.832;9.126;2023-04-24T01:12:38;1.37;;;0.60;;
19107;SDS011;9686;48.832;9.126;2023-04-24T01:15:04;0.87;;;0.50;;
19107;SDS011;9686;48.832;9.126;2023-04-24T01:17:31;2.00;;;0.70;;
19107;SDS011;9686;48.832;9.126;2023-04-24T01:19:57;0.83;;;0.63;;
19107;SDS011;9686;48.832;9.126;2023-04-24T01:22:23;0.60;;;0.50;;
19107;SDS011;9686;48.832;9.126;2023-04-24T01:24:48;0.70;;;0.60;;
19107;SDS011;9686;48.832;9.126;2023-04-24T01:27:14;1.13;;;0.50;;
19107;SDS011;9686;48.832;9.126;2023-04-24T01:29:39;0.93;;;0.60;;
19107;SDS011;9686;48.832;9.126;2023-04-24T01:32:05;0.87;;;0.60;;
19107;SDS011;9686;48.832;9.126;2023-04-24T01:34:31;0.93;;;0.60;;
19107;SDS011;9686;48.832;9.126;2023-04-24T01:36:57;4.13;;;0.70;;
19107;SDS011;9686;48.832;9.126;2023-04-24T01:39:22;2.27;;;0.97;;
19107;SDS011;9686;48.832;9.126;2023-04-24T01:41:50;2.40;;;0.60;;
19107;SDS011;9686;48.832;9.126;2023-04-24T01:44:15;0.97;;;0.50;;
19107;SDS011;9686;48.832;9.126;2023-04-24T01:46:42;1.20;;;0.60;;
19107;SDS011;9686;48.832;9.126;2023-04-24T01:49:07;0.77;;;0.60;;
19107;SDS011;9686;48.832;9.126;2023-04-24T01:51:33;1.87;;;0.60;;
19107;SDS011;9686;48.832;9.126;2023-04-24T01:53:58;0.60;;;0.60;;
19107;SDS011;9686;48.832;9.126;2023-04-24T01:56:23;1.57;;;0.70;;
19107;SDS011;9686;48.832;9.126;2023-04-24T01:58:50;1.60;;;0.73;;
19107;SDS011;9686;48.832;9.126;2023-04-24T02:01:18;2.57;;;0.90;;
19107;SDS011;9686;48.832;9.126;2023-04-24T02:03:45;1.20;;;0.60;;
19107;SDS011;9686;48.832;9.126;2023-04-24T02:06:10;0.50;;;0.50;;
19107;SDS011;9686;48.832;9.126;2023-04-24T02:08:35;2.80;;;0.70;;
19107;SDS011;9686;48.832;9.126;2023-04-24T02:11:00;1.87;;;0.50;;
19107;SDS011;9686;48.832;9.126;2023-04-24T02:13:27;0.57;;;0.50;;
19107;SDS011;9686;48.832;9.126;2023-04-24T02:15:52;1.23;;;0.60;;
19107;SDS011;9686;48.832;9.126;2023-04-24T02:18:18;0.67;;;0.67;;
19107;SDS011;9686;48.832;9.126;2023-04-24T02:20:43;3.33;;;0.60;;
19107;SDS011;9686;48.832;9.126;2023-04-24T02:23:08;3.13;;;0.73;;
19107;SDS011;9686;48.832;9.126;2023-04-24T02:25:34;1.57;;;0.60;;
19107;SDS011;9686;48.832;9.126;2023-04-24T02:27:59;2.37;;;0.60;;
19107;SDS011;9686;48.832;9.126;2023-04-24T02:30:24;0.60;;;0.60;;
19107;SDS011;9686;48.832;9.126;2023-04-24T02:32:50;2.23;;;0.70;;
19107;SDS011;9686;48.832;9.126;2023-04-24T02:35:15;0.60;;;0.57;;
19107;SDS011;9686;48.832;9.126;2023-04-24T02:37:40;1.97;;;1.10;;
19107;SDS011;9686;48.832;9.126;2023-04-24T02:40:06;0.57;;;0.57;;
19107;SDS011;9686;48.832;9.126;2023-04-24T02:42:32;1.67;;;0.70;;
19107;SDS011;9686;48.832;9.126;2023-04-24T02:44:57;1.43;;;0.70;;
19107;SDS011;9686;48.832;9.126;2023-04-24T02:47:23;0.73;;;0.50;;
19107;SDS011;9686;48.832;9.126;2023-04-24T02:49:48;1.30;;;0.70;;
19107;SDS011;9686;48.832;9.126;2023-04-24T02:52:13;1.07;;;0.73;;
19107;SDS011;9686;48.832;9.126;2023-04-24T02:54:39;0.67;;;0.50;;
19107;SDS011;9686;48.832;9.126;2023-04-24T02:57:05;0.90;;;0.53;;
19107;SDS011;9686;48.832;9.126;2023-04-24T02:59:31;1.03;;;0.80;;
19107;SDS011;9686;48.832;9.126;2023-04-24T03:01:56;1.93;;;0.80;;
19107;SDS011;9686;48.832;9.126;2023-04-24T03:04:22;1.20;;;0.70;;
19107;SDS011;9686;48.832;9.126;2023-04-24T03:06:47;1.50;;;0.70;;
19107;SDS011;9686;48.832;9.126;2023-04-24T03:09:13;0.63;;;0.63;;
19107;SDS011;9686;48.832;9.126;2023-04-24T03:11:38;1.87;;;0.63;;
19107;SDS011;9686;48.832;9.126;2023-04-24T03:14:03;2.37;;;0.70;;
19107;SDS011;9686;48.832;9.126;2023-04-24T03:16:29;0.83;;;0.53;;
19107;SDS011;9686;48.832;9.126;2023-04-24T03:18:54;1.10;;;0.70;;
19107;SDS011;9686;48.832;9.126;2023-04-24T03:21:19;2.47;;;0.60;;
19107;SDS011;9686;48.832;9.126;2023-04-24T03:23:45;1.70;;;0.90;;
19107;SDS011;9686;48.832;9.126;2023-04-24T03:26:10;1.37;;;0.63;;
19107;SDS011;9686;48.832;9.126;2023-04-24T03:28:36;2.63;;;0.83;;
19107;SDS011;9686;48.832;9.126;2023-04-24T03:31:02;1.97;;;0.80;;
19107;SDS011;9686;48.832;9.126;2023-04-24T03:33:28;1.90;;;0.80;;
19107;SDS011;9686;48.832;9.126;2023-04-24T03:35:53;0.77;;;0.70;;
19107;SDS011;9686;48.832;9.126;2023-04-24T03:38:18;2.23;;;0.80;;
19107;SDS011;9686;48.832;9.126;2023-04-24T03:40:43;1.27;;;0.70;;
19107;SDS011;9686;48.832;9.126;2023-04-24T03:43:09;1.43;;;0.60;;
19107;SDS011;9686;48.832;9.126;2023-04-24T03:45:34;2.73;;;0.67;;
19107;SDS011;9686;48.832;9.126;2023-04-24T03:47:59;1.80;;;0.60;;
19107;SDS011;9686;48.832;9.126;2023-04-24T03:50:25;2.20;;;0.90;;
19107;SDS011;9686;48.832;9.126;2023-04-24T03:52:51;1.73;;;0.70;;
19107;SDS011;9686;48.832;9.126;2023-04-24T03:55:16;1.20;;;0.87;;
19107;SDS011;9686;48.832;9.126;2023-04-24T03:57:42;2.33;;;0.90;;
19107;SDS011;9686;48.832;9.126;2023-04-24T04:00:07;1.83;;;1.17;;
19107;SDS011;9686;48.832;9.126;2023-04-24T04:02:33;1.87;;;0.97;;
19107;SDS011;9686;48.832;9.126;2023-04-24T04:04:59;2.47;;;0.93;;
19107;SDS011;9686;48.832;9.126;2023-04-24T04:07:24;2.07;;;0.77;;
19107;SDS011;9686;48.832;9.126;2023-04-24T04:09:50;2.73;;;0.70;;
19107;SDS011;9686;48.832;9.126;2023-04-24T04:12:15;1.03;;;0.80;;
19107;SDS011;9686;48.832;9.126;2023-04-24T04:14:41;1.47;;;0.67;;
19107;SDS011;9686;48.832;9.126;2023-04-24T04:17:06;2.63;;;0.80;;
19107;SDS011;9686;48.832;9.126;2023-04-24T04:19:31;1.07;;;0.60;;
19107;SDS011;9686;48.832;9.126;2023-04-24T04:21:57;1.07;;;0.80;;
19107;SDS011;9686;48.832;9.126;2023-04-24T04:24:22;1.20;;;0.70;;
19107;SDS011;9686;48.832;9.126;2023-04-24T04:26:48;1.07;;;0.80;;
19107;SDS011;9686;48.832;9.126;2023-04-24T04:29:15;0.60;;;0.60;;
19107;SDS011;9686;48.832;9.126;2023-04-24T04:31:41;1.53;;;0.70;;
19107;SDS011;9686;48.832;9.126;2023-04-24T04:34:06;0.93;;;0.73;;
19107;SDS011;9686;48.832;9.126;2023-04-24T04:36:32;1.57;;;0.73;;
19107;SDS011;9686;48.832;9.126;2023-04-24T04:39:01;0.93;;;0.80;;
19107;SDS011;9686;48.832;9.126;2023-04-24T04:41:27;0.90;;;0.70;;
19107;SDS011;9686;48.832;9.126;2023-04-24T04:43:53;2.50;;;1.20;;
19107;SDS011;9686;48.832;9.126;2023-04-24T04:46:18;1.70;;;1.27;;
19107;SDS011;9686;48.832;9.126;2023-04-24T04:48:43;2.60;;;0.90;;
19107;SDS011;9686;48.832;9.126;2023-04-24T04:51:09;0.87;;;0.70;;
19107;SDS011;9686;48.832;9.126;2023-04-24T04:53:34;1.43;;;0.90;;
19107;SDS011;9686;48.832;9.126;2023-04-24T04:56:00;1.67;;;1.03;;
19107;SDS011;9686;48.832;9.126;2023-04-24T04:58:25;1.27;;;1.17;;
19107;SDS011;9686;48.832;9.126;2023-04-24T05:00:51;1.00;;;0.90;;
19107;SDS011;9686;48.832;9.126;2023-04-24T05:03:17;1.20;;;1.10;;
19107;SDS011;9686;48.832;9.126;2023-04-24T05:05:42;2.03;;;1.10;;
19107;SDS011;9686;48.832;9.126;2023-04-24T05:08:07;1.13;;;1.00;;
19107;SDS011;9686;48.832;9.126;2023-04-24T05:10:33;1.40;;;1.03;;
19107;SDS011;9686;48.832;9.126;2023-04-24T05:12:58;2.40;;;1.30;;
19107;SDS011;9686;48.832;9.126;2023-04-24T05:15:24;1.57;;;1.20;;
19107;SDS011;9686;48.832;9.126;2023-04-24T05:17:49;2.90;;;1.00;;
19107;SDS011;9686;48.832;9.126;2023-04-24T05:20:15;1.10;;;1.00;;
19107;SDS011;9686;48.832;9.126;2023-04-24T05:22:40;1.13;;;1.03;;
19107;SDS011;9686;48.832;9.126;2023-04-24T05:25:05;1.10;;;0.77;;
19107;SDS011;9686;48.832;9.126;2023-04-24T05:27:31;0.80;;;0.80;;
19107;SDS011;9686;48.832;9.126;2023-04-24T05:29:56;1.07;;;0.80;;
19107;SDS011;9686;48.832;9.126;2023-04-24T05:32:22;1.03;;;0.93;;
19107;SDS011;9686;48.832;9.126;2023-04-24T05:34:47;1.17;;;0.97;;
19107;SDS011;9686;48.832;9.126;2023-04-24T05:37:12;2.10;;;1.10;;
19107;SDS011;9686;48.832;9.126;2023-04-24T05:39:37;1.67;;;1.57;;
19107;SDS011;9686;48.832;9.126;2023-04-24T05:42:03;2.03;;;1.57;;
19107;SDS011;9686;48.832;9.126;2023-04-24T05:44:29;1.87;;;1.70;;
19107;SDS011;9686;48.832;9.126;2023-04-24T05:46:55;1.77;;;0.93;;
19107;SDS011;9686;48.832;9.126;2023-04-24T05:49:20;1.30;;;1.20;;
19107;SDS011;9686;48.832;9.126;2023-04-24T05:51:46;1.33;;;1.23;;
19107;SDS011;9686;48.832;9.126;2023-04-24T05:54:11;2.07;;;1.30;;
19107;SDS011;9686;48.832;9.126;2023-04-24T05:56:37;1.43;;;1.30;;
19107;SDS011;9686;48.832;9.126;2023-04-24T05:59:02;1.60;;;1.17;;
19107;SDS011;9686;48.832;9.126;2023-04-24T06:01:28;2.00;;;1.20;;
19107;SDS011;9686;48.832;9.126;2023-04-24T06:03:54;1.40;;;1.30;;
19107;SDS011;9686;48.832;9.126;2023-04-24T06:06:20;1.23;;;1.10;;
19107;SDS011;9686;48.832;9.126;2023-04-24T06:08:45;0.87;;;0.87;;
19107;SDS011;9686;48.832;9.126;2023-04-24T06:11:11;1.00;;;0.90;;
19107;SDS011;9686;48.832;9.126;2023-04-24T06:13:36;1.43;;;1.20;;
19107;SDS011;9686;48.832;9.126;2023-04-24T06:16:01;1.37;;;1.20;;
19107;SDS011;9686;48.832;9.126;2023-04-24T06:18:27;1.50;;;1.40;;
19107;SDS011;9686;48.832;9.126;2023-04-24T06:20:52;5.70;;;1.60;;
19107;SDS011;9686;48.832;9.126;2023-04-24T06:23:17;1.43;;;1.33;;
19107;SDS011;9686;48.832;9.126;2023-04-24T06:25:43;1.53;;;1.30;;
19107;SDS011;9686;48.832;9.126;2023-04-24T06:28:08;1.87;;;1.50;;
19107;SDS011;9686;48.832;9.126;2023-04-24T06:30:33;1.67;;;1.40;;
19107;SDS011;9686;48.832;9.126;2023-04-24T06:32:59;1.63;;;1.40;;
19107;SDS011;9686;48.832;9.126;2023-04-24T06:35:24;1.83;;;1.57;;
19107;SDS011;9686;48.832;9.126;2023-04-24T06:37:49;3.00;;;1.30;;
19107;SDS011;9686;48.832;9.126;2023-04-24T06:40:16;1.30;;;1.20;;
19107;SDS011;9686;48.832;9.126;2023-04-24T06:42:43;1.93;;;1.50;;
19107;SDS011;9686;48.832;9.126;2023-04-24T06:45:08;1.83;;;1.60;;
19107;SDS011;9686;48.832;9.126;2023-04-24T06:47:34;1.20;;;1.10;;
19107;SDS011;9686;48.832;9.126;2023-04-24T06:50:00;2.07;;;1.40;;
19107;SDS011;9686;48.832;9.126;2023-04-24T06:52:25;2.63;;;1.50;;
19107;SDS011;9686;48.832;9.126;2023-04-24T06:54:50;1.77;;;1.40;;
19107;SDS011;9686;48.832;9.126;2023-04-24T06:57:17;1.33;;;1.23;;
19107;SDS011;9686;48.832;9.126;2023-04-24T06:59:43;1.30;;;0.90;;
19107;SDS011;9686;48.832;9.126;2023-04-24T07:02:08;2.27;;;1.30;;
19107;SDS011;9686;48.832;9.126;2023-04-24T07:04:33;3.00;;;1.40;;
19107;SDS011;9686;48.832;9.126;2023-04-24T07:06:59;1.50;;;1.40;;
19107;SDS011;9686;48.832;9.126;2023-04-24T07:09:25;1.67;;;1.50;;
19107;SDS011;9686;48.832;9.126;2023-04-24T07:11:51;3.43;;;1.50;;
19107;SDS011;9686;48.832;9.126;2023-04-24T07:14:17;1.90;;;1.33;;
19107;SDS011;9686;48.832;9.126;2023-04-24T07:16:42;3.07;;;1.27;;
19107;SDS011;9686;48.832;9.126;2023-04-24T07:19:08;2.43;;;1.30;;
19107;SDS011;9686;48.832;9.126;2023-04-24T07:21:34;2.80;;;1.50;;
19107;SDS011;9686;48.832;9.126;2023-04-24T07:23:59;2.50;;;1.43;;
19107;SDS011;9686;48.832;9.126;2023-04-24T07:26:25;1.37;;;1.27;;
19107;SDS011;9686;48.832;9.126;2023-04-24T07:28:51;4.53;;;1.47;;
19107;SDS011;9686;48.832;9.126;2023-04-24T07:31:16;2.17;;;1.50;;
19107;SDS011;9686;48.832;9.126;2023-04-24T07:33:42;3.27;;;1.30;;
19107;SDS011;9686;48.832;9.126;2023-04-24T07:36:07;1.40;;;1.30;;
19107;SDS011;9686;48.832;9.126;2023-04-24T07:38:32;1.50;;;1.27;;
19107;SDS011;9686;48.832;9.126;2023-04-24T07:40:58;1.60;;;1.20;;
19107;SDS011;9686;48.832;9.126;2023-04-24T07:43:23;1.53;;;1.13;;
19107;SDS011;9686;48.832;9.126;2023-04-24T07:45:49;1.97;;;1.20;;
19107;SDS011;9686;48.832;9.126;2023-04-24T07:48:15;1.17;;;1.00;;
19107;SDS011;9686;48.832;9.126;2023-04-24T07:50:42;2.67;;;1.07;;
19107;SDS011;9686;48.832;9.126;2023-04-24T07:53:08;1.33;;;1.20;;
19107;SDS011;9686;48.832;9.126;2023-04-24T07:55:33;2.20;;;1.07;;
19107;SDS011;9686;48.832;9.126;2023-04-24T07:57:59;5.10;;;1.20;;
19107;SDS011;9686;48.832;9.126;2023-04-24T08:00:24;2.43;;;1.03;;
19107;SDS011;9686;48.832;9.126;2023-04-24T08:02:49;1.30;;;1.20;;
19107;SDS011;9686;48.832;9.126;2023-04-24T08:05:15;1.37;;;1.07;;
19107;SDS011;9686;48.832;9.126;2023-04-24T08:07:40;3.73;;;1.10;;
19107;SDS011;9686;48.832;9.126;2023-04-24T08:10:07;2.33;;;1.30;;
19107;SDS011;9686;48.832;9.126;2023-04-24T08:12:35;1.80;;;0.90;;
19107;SDS011;9686;48.832;9.126;2023-04-24T08:15:00;1.97;;;1.20;;
19107;SDS011;9686;48.832;9.126;2023-04-24T08:17:26;2.13;;;1.00;;
19107;SDS011;9686;48.832;9.126;2023-04-24T08:19:51;3.87;;;1.40;;
19107;SDS011;9686;48.832;9.126;2023-04-24T08:22:18;1.53;;;1.27;;
19107;SDS011;9686;48.832;9.126;2023-04-24T08:24:43;2.67;;;1.33;;
19107;SDS011;9686;48.832;9.126;2023-04-24T08:27:08;1.20;;;1.10;;
19107;SDS011;9686;48.832;9.126;2023-04-24T08:29:35;2.23;;;1.10;;
19107;SDS011;9686;48.832;9.126;2023-04-24T08:32:00;2.90;;;1.43;;
19107;SDS011;9686;48.832;9.126;2023-04-24T08:34:26;2.90;;;1.20;;
19107;SDS011;9686;48.832;9.126;2023-04-24T08:36:51;2.67;;;1.17;;
19107;SDS011;9686;48.832;9.126;2023-04-24T08:39:16;1.63;;;1.33;;
19107;SDS011;9686;48.832;9.126;2023-04-24T08:41:42;1.77;;;1.10;;
19107;SDS011;9686;48.832;9.126;2023-04-24T08:44:08;3.87;;;1.10;;
19107;SDS011;9686;48.832;9.126;2023-04-24T08:46:35;2.53;;;1.20;;
19107;SDS011;9686;48.832;9.126;2023-04-24T08:49:01;1.30;;;1.20;;
19107;SDS011;9686;48.832;9.126;2023-04-24T08:51:27;1.30;;;1.20;;
19107;SDS011;9686;48.832;9.126;2023-04-24T08:53:53;3.83;;;1.20;;
19107;SDS011;9686;48.832;9.126;2023-04-24T08:56:20;3.03;;;1.40;;
19107;SDS011;9686;48.832;9.126;2023-04-24T08:58:48;2.73;;;1.20;;
19107;SDS011;9686;48.832;9.126;2023-04-24T09:01:15;1.27;;;1.17;;
19107;SDS011;9686;48.832;9.126;2023-04-24T09:03:41;1.43;;;1.23;;
19107;SDS011;9686;48.832;9.126;2023-04-24T09:06:08;2.37;;;0.90;;
19107;SDS011;9686;48.832;9.126;2023-04-24T09:08:35;2.60;;;1.47;;
19107;SDS011;9686;48.832;9.126;2023-04-24T09:11:01;1.77;;;1.20;;
19107;SDS011;9686;48.832;9.126;2023-04-24T09:13:28;2.37;;;1.27;;
19107;SDS011;9686;48.832;9.126;2023-04-24T09:15:55;1.37;;;0.93;;
19107;SDS011;9686;48.832;9.126;2023-04-24T09:18:22;3.93;;;1.10;;
19107;SDS011;9686;48.832;9.126;2023-04-24T09:21:00;1.10;;;1.00;;
19107;SDS011;9686;48.832;9.126;2023-04-24T09:23:32;1.27;;;1.10;;
19107;SDS011;9686;48.832;9.126;2023-04-24T09:25:58;1.13;;;0.97;;
19107;SDS011;9686;48.832;9.126;2023-04-24T09:28:30;0.90;;;0.70;;
19107;SDS011;9686;48.832;9.126;2023-04-24T09:31:11;2.73;;;1.00;;
19107;SDS011;9686;48.832;9.126;2023-04-24T09:33:38;2.20;;;1.10;;
19107;SDS011;9686;48.832;9.126;2023-04-24T09:36:04;3.70;;;1.13;;
19107;SDS011;9686;48.832;9.126;2023-04-24T09:38:34;1.77;;;1.20;;
19107;SDS011;9686;48.832;9.126;2023-04-24T09:41:02;1.67;;;1.10;;
19107;SDS011;9686;48.832;9.126;2023-04-24T09:43:29;3.70;;;1.07;;
19107;SDS011;9686;48.832;9.126;2023-04-24T09:45:56;1.70;;;1.10;;
19107;SDS011;9686;48.832;9.126;2023-04-24T09:48:35;1.80;;;1.00;;
19107;SDS011;9686;48.832;9.126;2023-04-24T09:51:03;0.90;;;0.90;;
19107;SDS011;9686;48.832;9.126;2023-04-24T09:53:31;2.43;;;0.97;;
19107;SDS011;9686;48.832;9.126;2023-04-24T09:56:07;2.37;;;1.10;;
19107;SDS011;9686;48.832;9.126;2023-04-24T09:58:34;1.53;;;1.20;;
19107;SDS011;9686;48.832;9.126;2023-04-24T10:01:01;1.50;;;0.90;;
19107;SDS011;9686;48.832;9.126;2023-04-24T10:03:29;0.97;;;0.93;;
19107;SDS011;9686;48.832;9.126;2023-04-24T10:05:58;2.27;;;1.20;;
19107;SDS011;9686;48.832;9.126;2023-04-24T10:08:32;1.77;;;1.00;;
19107;SDS011;9686;48.832;9.126;2023-04-24T10:10:59;2.93;;;0.90;;
19107;SDS011;9686;48.832;9.126;2023-04-24T10:13:25;2.40;;;1.10;;
19107;SDS011;9686;48.832;9.126;2023-04-24T10:15:50;1.17;;;1.07;;
19107;SDS011;9686;48.832;9.126;2023-04-24T10:18:16;1.97;;;1.00;;
19107;SDS011;9686;48.832;9.126;2023-04-24T10:20:42;1.70;;;1.00;;
19107;SDS011;9686;48.832;9.126;2023-04-24T10:23:07;1.70;;;0.90;;
19107;SDS011;9686;48.832;9.126;2023-04-24T10:25:34;1.57;;;1.07;;
19107;SDS011;9686;48.832;9.126;2023-04-24T10:28:00;3.40;;;1.10;;
19107;SDS011;9686;48.832;9.126;2023-04-24T10:30:27;2.73;;;1.10;;
19107;SDS011;9686;48.832;9.126;2023-04-24T10:32:54;1.30;;;1.20;;
19107;SDS011;9686;48.832;9.126;2023-04-24T10:35:20;1.23;;;1.10;;
19107;SDS011;9686;48.832;9.126;2023-04-24T10:37:50;1.77;;;1.13;;
19107;SDS011;9686;48.832;9.126;2023-04-24T10:40:25;2.83;;;1.10;;
19107;SDS011;9686;48.832;9.126;2023-04-24T10:42:52;1.60;;;1.17;;
19107;SDS011;9686;48.832;9.126;2023-04-24T10:45:22;1.00;;;0.90;;
19107;SDS011;9686;48.832;9.126;2023-04-24T10:47:57;1.10;;;1.00;;
19107;SDS011;9686;48.832;9.126;2023-04-24T10:50:26;2.40;;;1.10;;
19107;SDS011;9686;48.832;9.126;2023-04-24T10:53:07;3.53;;;0.97;;
19107;SDS011;9686;48.832;9.126;2023-04-24T10:55:43;2.83;;;1.20;;
19107;SDS011;9686;48.832;9.126;2023-04-24T10:58:09;1.17;;;1.00;;
19107;SDS011;9686;48.832;9.126;2023-04-24T11:00:39;1.40;;;1.17;;
19107;SDS011;9686;48.832;9.126;2023-04-24T11:03:06;1.70;;;1.00;;
19107;SDS011;9686;48.832;9.126;2023-04-24T11:05:49;1.87;;;0.87;;
19107;SDS011;9686;48.832;9.126;2023-04-24T11:08:43;2.13;;;0.90;;
19107;SDS011;9686;48.832;9.126;2023-04-24T11:11:10;1.60;;;0.90;;
19107;SDS011;9686;48.832;9.126;2023-04-24T11:16:25;1.60;;;0.87;;
19107;SDS011;9686;48.832;9.126;2023-04-24T11:18:51;3.00;;;1.20;;
19107;SDS011;9686;48.832;9.126;2023-04-24T11:21:24;4.47;;;1.43;;
19107;SDS011;9686;48.832;9.126;2023-04-24T11:23:50;1.33;;;1.00;;
19107;SDS011;9686;48.832;9.126;2023-04-24T11:26:19;1.60;;;1.50;;
19107;SDS011;9686;48.832;9.126;2023-04-24T11:28:49;2.13;;;1.10;;
19107;SDS011;9686;48.832;9.126;2023-04-24T11:34:12;1.50;;;1.27;;
19107;SDS011;9686;48.832;9.126;2023-04-24T11:36:39;1.13;;;1.03;;
19107;SDS011;9686;48.832;9.126;2023-04-24T11:39:07;0.90;;;0.90;;
19107;SDS011;9686;48.832;9.126;2023-04-24T11:41:33;1.03;;;0.93;;
19107;SDS011;9686;48.832;9.126;2023-04-24T11:43:59;2.50;;;1.20;;
19107;SDS011;9686;48.832;9.126;2023-04-24T11:46:28;1.67;;;1.00;;
19107;SDS011;9686;48.832;9.126;2023-04-24T11:48:55;2.83;;;1.07;;
19107;SDS011;9686;48.832;9.126;2023-04-24T11:51:22;2.17;;;1.00;;
19107;SDS011;9686;48.832;9.126;2023-04-24T11:53:48;0.87;;;0.80;;
19107;SDS011;9686;48.832;9.126;2023-04-24T11:56:17;0.83;;;0.83;;
19107;SDS011;9686;48.832;9.126;2023-04-24T11:58:44;1.90;;;1.10;;
19107;SDS011;9686;48.832;9.126;2023-04-24T12:01:09;2.30;;;2.07;;
19107;SDS011;9686;48.832;9.126;2023-04-24T12:03:35;1.40;;;1.30;;
19107;SDS011;9686;48.832;9.126;2023-04-24T12:06:06;3.40;;;1.00;;
19107;SDS011;9686;48.832;9.126;2023-04-24T12:08:33;1.67;;;1.00;;
19107;SDS011;9686;48.832;9.126;2023-04-24T12:11:02;1.50;;;1.23;;
19107;SDS011;9686;48.832;9.126;2023-04-24T12:13:29;2.13;;;1.07;;
19107;SDS011;9686;48.832;9.126;2023-04-24T12:15:56;1.20;;;1.10;;
19107;SDS011;9686;48.832;9.126;2023-04-24T12:18:22;1.90;;;1.20;;
19107;SDS011;9686;48.832;9.126;2023-04-24T12:20:48;1.90;;;1.17;;
19107;SDS011;9686;48.832;9.126;2023-04-24T12:23:14;1.67;;;1.10;;
19107;SDS011;9686;48.832;9.126;2023-04-24T12:25:39;1.27;;;1.13;;
19107;SDS011;9686;48.832;9.126;2023-04-24T12:30:31;3.63;;;1.17;;
19107;SDS011;9686;48.832;9.126;2023-04-24T12:32:59;2.77;;;1.00;;
19107;SDS011;9686;48.832;9.126;2023-04-24T12:35:26;1.30;;;1.00;;
19107;SDS011;9686;48.832;9.126;2023-04-24T12:37:52;1.37;;;1.10;;
19107;SDS011;9686;48.832;9.126;2023-04-24T12:40:18;1.20;;;1.10;;
19107;SDS011;9686;48.832;9.126;2023-04-24T12:42:46;1.37;;;1.27;;
19107;SDS011;9686;48.832;9.126;2023-04-24T12:45:16;1.20;;;1.10;;
19107;SDS011;9686;48.832;9.126;2023-04-24T12:47:43;3.07;;;1.13;;
19107;SDS011;9686;48.832;9.126;2023-04-24T12:50:10;1.43;;;1.07;;
19107;SDS011;9686;48.832;9.126;2023-04-24T12:52:37;1.90;;;1.20;;
19107;SDS011;9686;48.832;9.126;2023-04-24T12:55:04;1.17;;;1.07;;
19107;SDS011;9686;48.832;9.126;2023-04-24T12:57:32;1.17;;;1.07;;
19107;SDS011;9686;48.832;9.126;2023-04-24T12:59:58;2.40;;;0.87;;
19107;SDS011;9686;48.832;9.126;2023-04-24T13:02:24;1.50;;;0.80;;
19107;SDS011;9686;48.832;9.126;2023-04-24T13:04:51;0.83;;;0.83;;
19107;SDS011;9686;48.832;9.126;2023-04-24T13:07:16;1.07;;;0.87;;
19107;SDS011;9686;48.832;9.126;2023-04-24T13:09:42;1.13;;;0.90;;
19107;SDS011;9686;48.832;9.126;2023-04-24T13:12:09;0.97;;;0.87;;
19107;SDS011;9686;48.832;9.126;2023-04-24T13:14:35;1.20;;;1.10;;
19107;SDS011;9686;48.832;9.126;2023-04-24T13:17:01;1.67;;;1.30;;
19107;SDS011;9686;48.832;9.126;2023-04-24T13:19:26;1.40;;;1.10;;
19107;SDS011;9686;48.832;9.126;2023-04-24T13:21:53;1.47;;;1.27;;
19107;SDS011;9686;48.832;9.126;2023-04-24T13:24:20;3.53;;;1.20;;
19107;SDS011;9686;48.832;9.126;2023-04-24T13:26:46;2.53;;;1.40;;
19107;SDS011;9686;48.832;9.126;2023-04-24T13:29:11;1.40;;;1.30;;
19107;SDS011;9686;48.832;9.126;2023-04-24T13:31:36;2.23;;;1.47;;
19107;SDS011;9686;48.832;9.126;2023-04-24T13:34:02;2.73;;;1.37;;
19107;SDS011;9686;48.832;9.126;2023-04-24T13:36:28;2.83;;;1.20;;
19107;SDS011;9686;48.832;9.126;2023-04-24T13:38:53;3.53;;;1.63;;
19107;SDS011;9686;48.832;9.126;2023-04-24T13:41:19;2.27;;;1.60;;
19107;SDS011;9686;48.832;9.126;2023-04-24T13:43:44;2.33;;;1.60;;
19107;SDS011;9686;48.832;9.126;2023-04-24T13:46:09;2.73;;;1.20;;
19107;SDS011;9686;48.832;9.126;2023-04-24T13:48:35;1.53;;;1.00;;
19107;SDS011;9686;48.832;9.126;2023-04-24T13:51:00;1.30;;;1.20;;
19107;SDS011;9686;48.832;9.126;2023-04-24T13:53:25;2.00;;;1.07;;
19107;SDS011;9686;48.832;9.126;2023-04-24T13:55:51;1.83;;;1.20;;
19107;SDS011;9686;48.832;9.126;2023-04-24T13:58:16;2.37;;;1.20;;
19107;SDS011;9686;48.832;9.126;2023-04-24T14:00:42;1.90;;;1.20;;
19107;SDS011;9686;48.832;9.126;2023-04-24T14:03:07;1.40;;;1.30;;
19107;SDS011;9686;48.832;9.126;2023-04-24T14:05:32;1.90;;;1.10;;
19107;SDS011;9686;48.832;9.126;2023-04-24T14:07:58;1.30;;;1.20;;
19107;SDS011;9686;48.832;9.126;2023-04-24T14:10:23;2.97;;;1.17;;
19107;SDS011;9686;48.832;9.126;2023-04-24T14:12:48;1.23;;;1.13;;
19107;SDS011;9686;48.832;9.126;2023-04-24T14:15:14;1.20;;;1.10;;
19107;SDS011;9686;48.832;9.126;2023-04-24T14:17:39;1.20;;;1.10;;
19107;SDS011;9686;48.832;9.126;2023-04-24T14:20:05;2.37;;;1.57;;
19107;SDS011;9686;48.832;9.126;2023-04-24T14:22:31;1.57;;;1.40;;
19107;SDS011;9686;48.832;9.126;2023-04-24T14:24:57;1.23;;;1.17;;
19107;SDS011;9686;48.832;9.126;2023-04-24T14:27:22;1.90;;;1.17;;
19107;SDS011;9686;48.832;9.126;2023-04-24T14:29:49;1.37;;;1.17;;
19107;SDS011;9686;48.832;9.126;2023-04-24T14:32:14;1.47;;;1.37;;
19107;SDS011;9686;48.832;9.126;2023-04-24T14:34:40;1.50;;;1.40;;
19107;SDS011;9686;48.832;9.126;2023-04-24T14:37:06;2.90;;;1.30;;
19107;SDS011;9686;48.832;9.126;2023-04-24T14:39:32;1.63;;;1.30;;
19107;SDS011;9686;48.832;9.126;2023-04-24T14:41:57;1.40;;;1.30;;
19107;SDS011;9686;48.832;9.126;2023-04-24T14:44:23;3.07;;;1.70;;
19107;SDS011;9686;48.832;9.126;2023-04-24T14:46:48;1.97;;;1.40;;
19107;SDS011;9686;48.832;9.126;2023-04-24T14:49:14;2.47;;;1.30;;
19107;SDS011;9686;48.832;9.126;2023-04-24T14:51:39;1.40;;;1.30;;
19107;SDS011;9686;48.832;9.126;2023-04-24T14:54:05;1.53;;;1.27;;
19107;SDS011;9686;48.832;9.126;2023-04-24T14:56:31;2.67;;;1.60;;
19107;SDS011;9686;48.832;9.126;2023-04-24T14:58:57;3.73;;;1.43;;
19107;SDS011;9686;48.832;9.126;2023-04-24T15:01:22;1.80;;;1.57;;
19107;SDS011;9686;48.832;9.126;2023-04-24T15:03:49;2.60;;;1.30;;